ADDS TAF Board (Experimental) INFO Settings
IDs: Format: Expanded Condensed

KPIT - Pittsburgh Intl, PA, US

Issued at 0520 UTC 25 Aug 2016
Updated at 0757 UTC 25 Aug 2016
Time0751Z 25/08Z 25/09Z 25/10Z 25/11Z 25/12Z 25/13Z 25/14Z 25/15Z 25/16Z 25/17Z 25/18Z 25/19Z 25/20Z
Type OBS PRVL
  [TEMP]  
PRVL
  [TEMP]  
PRVL PRVL PRVL PRVL PRVL PRVL PRVL PRVL PRVL PRVL PRVL
VIS 10 6
  [3]  
6
  [3]  
6 6 6 6 6 6 >6 >6 >6 >6 >6
CIG 45 40
  [25]  
40
  [25]  
40 40 40 40 40 40 -- -- -- -- --
Cover OVC BKN
  [BKN]  
BKN
  [BKN]  
BKN BKN BKN BKN BKN BKN SCT SCT SCT SCT SCT
FltCat VFR VFR
  [MVFR]  
VFR
  [MVFR]  
VFR VFR VFR VFR VFR VFR VFR VFR VFR VFR VFR
WX -- -RA
  [-RA]  
-RA
  [-RA]  
-RA -RA -RA -RA -RA -RA -- -- -- -- --
WDir 200 210
[210]
210
[210]
210 210 210 210 210 210 220 220 220 220 220
WSpd 9 8
  [8]  
8
  [8]  
8 8 8 8 8 8 7 7 7 7 7
WGst -- --
  [--]  
--
  [--]  
-- -- -- -- -- -- -- -- -- -- --
R10/28
XWnd -9 -7 -7 -7 -7 -7 -7 -7 -7 -6 -6 -6 -6 -6
XGst -- 0 0 -- -- -- -- -- -- -- -- -- -- --
HWnd -3 -4 -4 -4 -4 -4 -4 -4 -4 -4 -4 -4 -4 -4
HGst -- 0 0 -- -- -- -- -- -- -- -- -- -- --
R14/32
XWnd -8 -8 -8 -8 -8 -8 -8 -8 -8 -7 -7 -7 -7 -7
XGst -- 0 0 -- -- -- -- -- -- -- -- -- -- --
HWnd 4 2 2 2 2 2 2 2 2 1 1 1 1 1
HGst -- 0 0 -- -- -- -- -- -- -- -- -- -- --

Raw TAF
KPIT 250520Z 2506/2612 18005KT P6SM BKN100
  FM250700 21008KT 6SM -RA BKN040
  TEMPO 2508/2510 3SM -RA BKN025
  FM251600 22007KT P6SM SCT035
  FM260100 25005KT P6SM VCTS BKN035CB


Raw METAR
KPIT 250751Z 20009KT 10SM FEW030 BKN045 OVC150 25/19 A3004 RMK AO2 SLP168 T02500189
KPIT 250651Z 18006KT 10SM SCT038 BKN055 OVC150 24/19 A3005 RMK AO2 SLP174 T02390189
KPIT 250551Z 17005KT 10SM FEW040 SCT150 OVC250 23/19 A3007 RMK AO2 SLP178 T02330189 10272 20233 56018
KPIT 250451Z 18007KT 10SM SCT150 OVC250 23/18 A3008 RMK AO2 SLP183 T02330183 402940156

METAR Board
Radar Display
Forecast Discussion

TAF Board Legend

Potential Impact
Threat None Slight Moderate High
Visibility (sm) ≥5.1 5.1>X≥3 3>X≥1 <1
Ceiling (100 ft) ≥30.1 30.1>X≥10 10>X≥5 <5
Wind Speed (kt) <10 10≤X<20 20≤X<30 ≥30
Wind Gust (kt) <15 15≤X<25 25≤X<35 ≥35
Weather No Wx Reported VCTS,-TS,-FZRA,SN TS,FZRA +TS,+FZRA,+SN